createdAt,value
2022-11-26T00:02:24.541Z,4.47
2022-11-26T00:04:52.276Z,4.50
2022-11-26T00:07:21.568Z,4.50
2022-11-26T00:09:49.443Z,4.47
2022-11-26T00:12:25.270Z,4.35
2022-11-26T00:14:52.489Z,4.33
2022-11-26T00:17:20.448Z,4.30
2022-11-26T00:19:47.421Z,4.30
2022-11-26T00:22:24.589Z,4.30
2022-11-26T00:24:52.854Z,4.29
2022-11-26T00:27:19.701Z,4.31
2022-11-26T00:29:46.539Z,4.32
2022-11-26T00:32:21.929Z,4.34
2022-11-26T00:34:49.290Z,4.24
2022-11-26T00:37:33.893Z,4.24
2022-11-26T00:40:01.904Z,4.02
2022-11-26T00:42:28.526Z,4.09
2022-11-26T00:44:55.198Z,3.91
2022-11-26T00:47:21.818Z,4.00
2022-11-26T00:49:48.607Z,4.06
2022-11-26T00:52:33.767Z,4.06
2022-11-26T00:55:06.132Z,4.08
2022-11-26T00:57:32.955Z,4.03
2022-11-26T00:59:59.599Z,4.15
2022-11-26T01:02:26.293Z,4.13
2022-11-26T01:04:52.943Z,4.07
2022-11-26T01:07:19.942Z,4.10
2022-11-26T01:09:47.504Z,3.92
2022-11-26T01:12:15.044Z,4.08
2022-11-26T01:14:41.880Z,4.12
2022-11-26T01:17:11.535Z,4.14
2022-11-26T01:19:38.263Z,4.18
2022-11-26T01:22:05.020Z,4.17
2022-11-26T01:24:31.641Z,4.15
2022-11-26T01:26:58.314Z,4.08
2022-11-26T01:29:25.121Z,4.07
2022-11-26T01:31:51.889Z,4.08
2022-11-26T01:34:18.518Z,4.10
2022-11-26T01:36:45.273Z,4.06
2022-11-26T01:39:17.642Z,4.14
2022-11-26T01:41:53.301Z,4.21
2022-11-26T01:44:29.426Z,4.12
2022-11-26T01:46:57.516Z,4.12
2022-11-26T01:49:27.299Z,4.13
2022-11-26T01:52:12.301Z,4.17
2022-11-26T01:54:42.315Z,4.10
2022-11-26T01:57:16.773Z,4.01
2022-11-26T01:59:46.914Z,4.02
2022-11-26T02:02:13.620Z,3.98
2022-11-26T02:04:55.734Z,4.00
2022-11-26T02:07:22.497Z,3.91
2022-11-26T02:09:49.600Z,4.02
2022-11-26T02:12:16.647Z,3.99
2022-11-26T02:14:44.395Z,4.08
2022-11-26T02:17:39.205Z,4.07
2022-11-26T02:20:15.019Z,4.08
2022-11-26T02:22:53.266Z,4.07
2022-11-26T02:25:29.042Z,4.11
2022-11-26T02:28:29.656Z,4.07
2022-11-26T02:31:09.718Z,4.10
2022-11-26T02:33:48.413Z,4.02
2022-11-26T02:36:24.696Z,4.05
2022-11-26T02:38:51.994Z,4.10
2022-11-26T02:41:18.648Z,4.13
2022-11-26T02:43:45.742Z,4.10
2022-11-26T02:46:17.256Z,3.94
2022-11-26T02:48:49.074Z,3.88
2022-11-26T02:51:23.987Z,3.84
2022-11-26T02:53:52.756Z,3.81
2022-11-26T02:56:23.353Z,3.77
2022-11-26T02:58:52.106Z,3.82
2022-11-26T03:01:27.288Z,3.77
2022-11-26T03:03:56.884Z,3.84
2022-11-26T03:06:25.818Z,3.77
2022-11-26T03:08:54.265Z,3.80
2022-11-26T03:11:21.462Z,3.66
2022-11-26T03:13:49.639Z,3.89
2022-11-26T03:16:19.543Z,3.95
2022-11-26T03:18:46.623Z,3.96
2022-11-26T03:21:13.183Z,3.96
2022-11-26T03:23:39.940Z,3.99
2022-11-26T03:26:06.735Z,4.00
2022-11-26T03:28:33.327Z,3.98
2022-11-26T03:30:59.898Z,3.91
2022-11-26T03:33:26.651Z,3.90
2022-11-26T03:35:53.251Z,3.93
2022-11-26T03:38:19.900Z,3.99
2022-11-26T03:40:55.165Z,4.00
2022-11-26T03:43:21.799Z,4.03
2022-11-26T03:45:48.411Z,4.05
2022-11-26T03:48:15.209Z,4.06
2022-11-26T03:50:41.789Z,4.03
2022-11-26T03:53:08.815Z,4.06
2022-11-26T03:55:35.493Z,4.08
2022-11-26T03:58:02.164Z,4.13
2022-11-26T04:00:28.985Z,4.07
2022-11-26T04:02:56.114Z,4.15
2022-11-26T04:05:22.757Z,4.20
2022-11-26T04:07:49.468Z,4.06
2022-11-26T04:10:16.254Z,4.01
2022-11-26T04:12:42.975Z,4.01
2022-11-26T04:15:10.136Z,4.12
2022-11-26T04:17:36.907Z,4.09
2022-11-26T04:20:04.204Z,4.06
2022-11-26T04:22:30.896Z,4.20
2022-11-26T04:24:57.657Z,4.24
2022-11-26T04:27:24.311Z,4.28
2022-11-26T04:29:50.899Z,4.28
2022-11-26T04:32:17.566Z,4.25
2022-11-26T04:34:44.149Z,4.26
2022-11-26T04:37:10.823Z,4.23
2022-11-26T04:39:37.459Z,4.22
2022-11-26T04:42:04.279Z,4.24
2022-11-26T04:44:30.866Z,4.17
2022-11-26T04:46:57.638Z,4.18
2022-11-26T04:49:24.365Z,4.22
2022-11-26T04:51:51.229Z,4.00
2022-11-26T04:54:17.872Z,4.18
2022-11-26T04:56:44.594Z,4.20
2022-11-26T04:59:11.171Z,4.24
2022-11-26T05:01:37.979Z,4.23
2022-11-26T05:04:04.792Z,4.23
2022-11-26T05:06:31.421Z,4.19
2022-11-26T05:08:58.089Z,3.96
2022-11-26T05:11:24.739Z,4.07
2022-11-26T05:13:51.316Z,4.13
2022-11-26T05:16:18.331Z,3.96
2022-11-26T05:18:44.971Z,4.08
2022-11-26T05:21:11.665Z,4.03
2022-11-26T05:23:38.377Z,3.99
2022-11-26T05:26:05.139Z,3.92
2022-11-26T05:28:31.745Z,3.93
2022-11-26T05:31:00.281Z,3.80
2022-11-26T05:33:27.361Z,3.76
2022-11-26T05:35:54.137Z,3.71
2022-11-26T05:38:20.950Z,3.66
2022-11-26T05:40:47.682Z,3.62
2022-11-26T05:43:14.244Z,3.43
2022-11-26T05:45:41.044Z,3.33
2022-11-26T05:48:07.658Z,3.25
2022-11-26T05:50:34.453Z,3.15
2022-11-26T05:53:01.131Z,3.21
2022-11-26T05:55:27.846Z,3.17
2022-11-26T05:57:54.421Z,3.15
2022-11-26T06:00:21.277Z,3.11
2022-11-26T06:02:47.980Z,3.06
2022-11-26T06:05:14.787Z,2.94
2022-11-26T06:07:44.565Z,2.99
2022-11-26T06:10:12.732Z,2.97
2022-11-26T06:12:39.330Z,2.92
2022-11-26T06:15:06.804Z,2.82
2022-11-26T06:17:33.521Z,2.79
2022-11-26T06:20:00.196Z,2.78
2022-11-26T06:22:26.939Z,2.75
2022-11-26T06:24:53.615Z,2.73
2022-11-26T06:27:20.183Z,2.72
2022-11-26T06:29:46.942Z,2.22
2022-11-26T06:32:13.518Z,2.66
2022-11-26T06:34:43.545Z,2.65
2022-11-26T06:37:10.751Z,2.64
2022-11-26T06:39:37.383Z,2.56
2022-11-26T06:42:04.253Z,2.54
2022-11-26T06:44:31.053Z,2.58
2022-11-26T06:46:57.754Z,2.57
2022-11-26T06:49:24.334Z,2.55
2022-11-26T06:51:51.151Z,2.56
2022-11-26T06:54:17.720Z,2.55
2022-11-26T06:56:44.491Z,2.50
2022-11-26T06:59:11.376Z,2.48
2022-11-26T07:01:38.549Z,2.48
2022-11-26T07:04:05.299Z,2.48
2022-11-26T07:06:33.238Z,2.49
2022-11-26T07:09:04.135Z,2.46
2022-11-26T07:11:31.085Z,2.38
2022-11-26T07:13:57.785Z,2.41
2022-11-26T07:16:24.715Z,2.34
2022-11-26T07:18:57.788Z,2.34
2022-11-26T07:21:28.647Z,2.32
2022-11-26T07:23:55.575Z,2.27
2022-11-26T07:26:23.614Z,2.25
2022-11-26T07:28:50.977Z,2.15
2022-11-26T07:31:20.878Z,2.18
2022-11-26T07:33:48.125Z,2.09
2022-11-26T07:36:20.708Z,2.07
2022-11-26T07:38:48.247Z,2.06
2022-11-26T07:41:17.567Z,2.17
2022-11-26T07:43:45.278Z,2.15
2022-11-26T07:46:15.750Z,2.25
2022-11-26T07:48:42.724Z,2.21
2022-11-26T07:51:18.483Z,2.12
2022-11-26T07:53:45.995Z,2.29
2022-11-26T07:56:12.593Z,2.38
2022-11-26T07:58:39.421Z,2.25
2022-11-26T08:01:11.808Z,2.33
2022-11-26T08:03:43.207Z,2.43
2022-11-26T08:06:12.272Z,2.52
2022-11-26T08:08:38.925Z,2.65
2022-11-26T08:11:13.087Z,2.72
2022-11-26T08:13:40.706Z,2.59
2022-11-26T08:16:07.816Z,2.54
2022-11-26T08:18:35.597Z,2.74
2022-11-26T08:21:02.434Z,2.78
2022-11-26T08:23:30.461Z,2.83
2022-11-26T08:26:21.546Z,2.83
2022-11-26T08:28:45.524Z,2.89
2022-11-26T08:31:13.725Z,2.49
2022-11-26T08:33:40.689Z,2.63
2022-11-26T08:36:08.810Z,2.67
2022-11-26T08:38:36.427Z,2.68
2022-11-26T08:41:05.991Z,2.79
2022-11-26T08:44:04.714Z,2.64
2022-11-26T08:46:22.166Z,2.84
2022-11-26T08:48:48.803Z,2.98
2022-11-26T08:51:15.486Z,2.88
2022-11-26T08:53:42.126Z,2.87
2022-11-26T08:56:11.957Z,3.06
2022-11-26T08:58:43.342Z,3.16
2022-11-26T09:01:12.002Z,3.26
2022-11-26T09:03:38.799Z,3.39
2022-11-26T09:06:07.293Z,3.18
2022-11-26T09:08:37.577Z,3.33
2022-11-26T09:11:04.273Z,3.47
2022-11-26T09:13:30.949Z,3.47
2022-11-26T09:15:57.740Z,3.64
2022-11-26T09:18:24.417Z,3.61
2022-11-26T09:20:56.858Z,3.45
2022-11-26T09:23:23.911Z,3.59
2022-11-26T09:25:50.585Z,3.76
2022-11-26T09:28:17.382Z,4.00
2022-11-26T09:30:43.978Z,4.16
2022-11-26T09:33:10.655Z,4.13
2022-11-26T09:35:37.375Z,4.05
2022-11-26T09:38:04.118Z,4.17
2022-11-26T09:40:45.675Z,4.18
2022-11-26T09:43:30.287Z,4.12
2022-11-26T09:46:00.521Z,3.89
2022-11-26T09:48:30.992Z,3.90
2022-11-26T09:51:08.023Z,4.09
2022-11-26T09:53:41.072Z,4.23
2022-11-26T09:56:14.857Z,4.28
2022-11-26T09:58:52.237Z,4.27
2022-11-26T10:01:21.795Z,4.50
2022-11-26T10:03:48.634Z,4.45
2022-11-26T10:06:18.376Z,4.31
2022-11-26T10:09:21.746Z,4.17
2022-11-26T10:11:51.944Z,4.33
2022-11-26T10:14:32.453Z,4.55
2022-11-26T10:17:04.855Z,4.50
2022-11-26T10:20:08.823Z,4.56
2022-11-26T10:22:45.776Z,4.60
2022-11-26T10:25:21.424Z,4.67
2022-11-26T10:27:49.555Z,4.80
2022-11-26T10:30:20.085Z,4.87
2022-11-26T10:32:49.642Z,4.78
2022-11-26T10:35:18.312Z,4.48
2022-11-26T10:37:45.332Z,4.45
2022-11-26T10:40:32.301Z,4.36
2022-11-26T10:43:08.183Z,4.33
2022-11-26T10:45:45.893Z,4.17
2022-11-26T10:48:27.499Z,4.26
2022-11-26T10:51:12.176Z,4.53
2022-11-26T10:53:55.155Z,4.72
2022-11-26T10:56:43.442Z,5.11
2022-11-26T10:59:22.043Z,4.97
2022-11-26T11:01:51.657Z,4.85
2022-11-26T11:04:44.805Z,4.90
2022-11-26T11:07:35.955Z,4.94
2022-11-26T11:10:15.542Z,4.97
2022-11-26T11:12:49.988Z,4.91
2022-11-26T11:15:19.909Z,4.84
2022-11-26T11:17:54.648Z,4.47
2022-11-26T11:20:29.688Z,4.79
2022-11-26T11:23:03.175Z,4.84
2022-11-26T11:25:33.142Z,4.74
2022-11-26T11:28:20.468Z,4.50
2022-11-26T11:30:56.908Z,4.46
2022-11-26T11:33:27.434Z,4.33
2022-11-26T11:36:12.391Z,4.42
2022-11-26T11:38:59.859Z,4.15
2022-11-26T11:41:36.796Z,4.13
2022-11-26T11:44:18.404Z,3.67
2022-11-26T12:21:41.082Z,3.56
2022-11-26T12:24:29.424Z,3.19
2022-11-26T12:27:03.265Z,3.34
2022-11-26T12:29:29.900Z,3.63
2022-11-26T12:32:21.239Z,3.31
2022-11-26T12:34:51.974Z,3.75
2022-11-26T12:37:28.308Z,3.41
2022-11-26T12:40:19.539Z,3.82
2022-11-26T12:42:59.103Z,3.42
2022-11-26T12:45:43.980Z,3.86
2022-11-26T12:48:15.703Z,3.99
2022-11-26T12:50:48.211Z,3.92
2022-11-26T12:53:37.018Z,3.40
2022-11-26T12:56:25.540Z,3.99
2022-11-26T12:59:18.545Z,3.02
2022-11-26T13:01:45.507Z,3.62
2022-11-26T13:04:36.854Z,3.89
2022-11-26T13:07:13.032Z,4.34
2022-11-26T13:10:00.596Z,4.27
2022-11-26T13:12:52.205Z,4.32
2022-11-26T13:15:35.232Z,4.21
2022-11-26T13:18:04.516Z,4.51
2022-11-26T13:21:10.231Z,3.93
2022-11-26T13:23:50.936Z,4.41
2022-11-26T13:26:48.621Z,4.55
2022-11-26T13:29:41.622Z,4.52
2022-11-26T13:32:14.149Z,4.61
2022-11-26T13:35:18.082Z,4.24
2022-11-26T13:38:17.628Z,3.93
2022-11-26T13:41:06.021Z,4.40
2022-11-26T13:43:54.724Z,4.44
2022-11-26T13:46:32.060Z,4.40
2022-11-26T13:49:14.432Z,4.18
2022-11-26T13:51:53.404Z,4.51
2022-11-26T13:54:26.903Z,4.36
2022-11-26T13:57:06.148Z,4.07
2022-11-26T13:59:34.369Z,3.92
2022-11-26T14:02:32.933Z,4.44
2022-11-26T14:05:02.079Z,3.89
2022-11-26T14:07:28.900Z,4.50
2022-11-26T14:09:58.367Z,4.68
2022-11-26T14:13:03.083Z,4.33
2022-11-26T14:16:05.129Z,4.46
2022-11-26T14:18:50.509Z,4.84
2022-11-26T14:21:21.600Z,4.62
2022-11-26T14:23:49.517Z,4.83
2022-11-26T14:26:23.594Z,4.64
2022-11-26T14:29:01.289Z,4.35
2022-11-26T14:31:31.643Z,4.21
2022-11-26T14:34:07.560Z,3.65
2022-11-26T14:36:34.420Z,4.23
2022-11-26T14:39:10.184Z,4.73
2022-11-26T14:41:42.916Z,4.76
2022-11-26T14:44:14.840Z,4.45
2022-11-26T14:46:44.518Z,4.40
2022-11-26T14:49:36.236Z,4.31
2022-11-26T14:52:32.186Z,4.91
2022-11-26T14:55:02.772Z,4.62
2022-11-26T14:57:40.852Z,4.51
2022-11-26T15:00:13.460Z,4.78
2022-11-26T15:02:46.310Z,4.17
2022-11-26T15:05:16.853Z,4.60
2022-11-26T15:07:44.478Z,4.70
2022-11-26T15:10:14.209Z,4.84
2022-11-26T15:12:42.195Z,4.47
2022-11-26T15:15:27.139Z,4.49
2022-11-26T15:17:58.830Z,4.27
2022-11-26T15:20:28.144Z,4.68
2022-11-26T15:22:58.122Z,4.50
2022-11-26T15:25:34.459Z,4.42
2022-11-26T15:28:06.273Z,4.47
2022-11-26T15:30:37.971Z,4.77
2022-11-26T15:33:13.292Z,4.33
2022-11-26T15:35:41.426Z,4.48
2022-11-26T15:38:15.231Z,4.64
2022-11-26T15:40:56.064Z,4.45
2022-11-26T15:43:29.085Z,4.93
2022-11-26T15:46:12.290Z,4.35
2022-11-26T15:49:01.853Z,4.97
2022-11-26T15:51:37.665Z,5.06
2022-11-26T15:54:26.411Z,4.96
2022-11-26T15:57:07.943Z,4.86
2022-11-26T15:59:46.303Z,4.51
2022-11-26T16:02:24.637Z,4.38
2022-11-26T16:04:56.593Z,4.75
2022-11-26T16:07:33.614Z,4.91
2022-11-26T16:10:21.450Z,4.93
2022-11-26T16:13:16.615Z,5.22
2022-11-26T16:15:59.290Z,4.72
2022-11-26T16:18:39.697Z,4.59
2022-11-26T16:21:33.411Z,4.97
2022-11-26T16:24:26.210Z,4.94
2022-11-26T16:26:57.720Z,4.98
2022-11-26T16:29:25.473Z,4.64
2022-11-26T16:31:52.123Z,4.63
2022-11-26T16:34:19.032Z,4.65
2022-11-26T16:36:46.100Z,4.88
2022-11-26T16:39:16.685Z,5.09
2022-11-26T16:41:43.319Z,5.04
2022-11-26T16:44:10.027Z,5.12
2022-11-26T16:46:38.049Z,5.47
2022-11-26T16:49:05.248Z,5.16
2022-11-26T16:51:31.972Z,5.09
2022-11-26T16:53:58.658Z,4.90
2022-11-26T16:56:32.128Z,5.17
2022-11-26T16:58:59.610Z,4.97
2022-11-26T17:01:26.236Z,4.76
2022-11-26T17:03:53.341Z,5.09
2022-11-26T17:06:27.597Z,4.93
2022-11-26T17:08:56.282Z,4.48
2022-11-26T17:11:23.830Z,4.72
2022-11-26T17:13:50.720Z,4.59
2022-11-26T17:16:22.736Z,4.90
2022-11-26T17:18:49.760Z,4.90
2022-11-26T17:21:16.440Z,4.06
2022-11-26T17:23:43.109Z,4.55
2022-11-26T17:26:20.005Z,4.72
2022-11-26T17:28:47.207Z,4.72
2022-11-26T17:31:13.911Z,4.18
2022-11-26T17:33:40.767Z,4.37
2022-11-26T17:36:25.494Z,4.20
2022-11-26T17:38:52.534Z,4.36
2022-11-26T17:41:19.172Z,4.25
2022-11-26T17:44:10.946Z,3.75
2022-11-26T17:46:54.442Z,3.90
2022-11-26T17:49:26.527Z,3.99
2022-11-26T17:51:53.309Z,3.71
2022-11-26T17:54:20.257Z,3.82
2022-11-26T17:56:47.957Z,3.84
2022-11-26T17:59:18.304Z,3.84
2022-11-26T18:01:51.299Z,3.52
2022-11-26T18:04:18.096Z,3.78
2022-11-26T18:06:51.895Z,3.51
2022-11-26T18:09:23.326Z,3.89
2022-11-26T18:11:55.734Z,3.85
2022-11-26T18:14:24.437Z,3.68
2022-11-26T18:16:52.228Z,3.78
2022-11-26T18:19:22.592Z,3.59
2022-11-26T18:21:50.582Z,3.32
2022-11-26T18:24:20.628Z,3.63
2022-11-26T18:26:47.447Z,3.13
2022-11-26T18:29:14.253Z,3.62
2022-11-26T18:31:41.899Z,3.44
2022-11-26T18:34:10.534Z,3.13
2022-11-26T18:36:38.472Z,2.89
2022-11-26T18:39:06.090Z,2.96
2022-11-26T18:41:34.099Z,2.78
2022-11-26T18:44:01.578Z,2.90
2022-11-26T18:46:30.191Z,3.18
2022-11-26T18:48:57.568Z,2.77
2022-11-26T18:51:24.736Z,2.78
2022-11-26T18:53:51.634Z,2.58
2022-11-26T18:56:21.245Z,3.07
2022-11-26T18:58:49.321Z,3.02
2022-11-26T19:01:31.477Z,3.18
2022-11-26T19:03:59.449Z,2.78
2022-11-26T19:06:29.310Z,2.67
2022-11-26T19:09:01.543Z,2.71
2022-11-26T19:11:29.044Z,2.89
2022-11-26T19:13:57.016Z,2.70
2022-11-26T19:16:27.369Z,2.43
2022-11-26T19:18:54.448Z,2.03
2022-11-26T19:21:39.233Z,2.56
2022-11-26T19:24:08.481Z,2.79
2022-11-26T19:26:36.869Z,2.47
2022-11-26T19:29:07.730Z,2.12
2022-11-26T19:31:34.901Z,2.08
2022-11-26T19:34:03.685Z,2.10
2022-11-26T19:36:30.444Z,2.25
2022-11-26T19:38:58.800Z,2.56
2022-11-26T19:41:27.902Z,1.98
2022-11-26T19:43:55.549Z,2.14
2022-11-26T19:46:24.195Z,2.62
2022-11-26T19:48:52.144Z,2.23
2022-11-26T19:51:20.810Z,2.14
2022-11-26T19:53:51.557Z,1.86
2022-11-26T19:56:19.897Z,2.11
2022-11-26T19:58:47.168Z,1.61
2022-11-26T20:01:18.084Z,1.98
2022-11-26T20:03:46.104Z,1.80
2022-11-26T20:06:15.928Z,1.79
2022-11-26T20:08:43.423Z,2.06
2022-11-26T20:11:11.041Z,1.45
2022-11-26T20:13:40.288Z,1.97
2022-11-26T20:16:09.731Z,1.34
2022-11-26T20:18:37.976Z,1.96
2022-11-26T20:21:14.669Z,1.48
2022-11-26T20:23:43.829Z,1.56
2022-11-26T20:26:19.653Z,1.98
2022-11-26T20:28:46.512Z,2.00
2022-11-26T20:31:18.199Z,1.73
2022-11-26T20:33:50.202Z,1.61
2022-11-26T20:36:17.667Z,1.72
2022-11-26T20:38:44.301Z,1.70
2022-11-26T20:41:13.380Z,1.84
2022-11-26T20:43:40.161Z,1.60
2022-11-26T20:46:08.081Z,2.09
2022-11-26T20:48:36.634Z,2.09
2022-11-26T20:51:09.858Z,1.78
2022-11-26T20:53:38.042Z,2.08
2022-11-26T20:56:06.307Z,1.80
2022-11-26T20:58:34.575Z,1.70
2022-11-26T21:01:02.341Z,1.78
2022-11-26T21:03:29.288Z,1.59
2022-11-26T21:05:55.907Z,1.80
2022-11-26T21:08:23.207Z,1.53
2022-11-26T21:10:50.589Z,1.52
2022-11-26T21:13:18.699Z,1.51
2022-11-26T21:15:46.366Z,1.83
2022-11-26T21:18:14.754Z,0.93
2022-11-26T21:20:43.154Z,1.84
2022-11-26T21:23:11.252Z,1.72
2022-11-26T21:25:39.469Z,1.79
2022-11-26T21:28:07.422Z,1.64
2022-11-26T21:30:40.840Z,1.31
2022-11-26T21:33:09.623Z,1.33
2022-11-26T21:35:37.683Z,1.80
2022-11-26T21:38:05.799Z,1.64
2022-11-26T21:40:33.564Z,1.39
2022-11-26T21:43:16.851Z,1.39
2022-11-26T21:45:43.553Z,1.18
2022-11-26T21:48:10.253Z,1.36
2022-11-26T21:50:36.944Z,1.31
2022-11-26T21:53:03.554Z,1.29
2022-11-26T21:55:30.951Z,1.31
2022-11-26T21:57:58.134Z,1.29
2022-11-26T22:00:24.855Z,1.46
2022-11-26T22:02:51.491Z,1.47
2022-11-26T22:05:18.142Z,1.42
2022-11-26T22:07:44.884Z,1.69
2022-11-26T22:10:11.737Z,1.35
2022-11-26T22:12:38.300Z,1.72
2022-11-26T22:15:05.396Z,1.40
2022-11-26T22:17:32.055Z,1.25
2022-11-26T22:19:58.738Z,1.42
2022-11-26T22:22:27.456Z,0.82
2022-11-26T22:24:54.242Z,1.27
2022-11-26T22:27:21.150Z,1.36
2022-11-26T22:29:48.285Z,1.43
2022-11-26T22:32:15.236Z,1.40
2022-11-26T22:34:41.883Z,1.52
2022-11-26T22:37:08.472Z,1.38
2022-11-26T22:39:35.184Z,1.19
2022-11-26T22:42:01.777Z,1.16
2022-11-26T22:44:28.408Z,1.24
2022-11-26T22:46:55.065Z,1.19
2022-11-26T22:49:21.743Z,1.36
2022-11-26T22:51:48.308Z,0.79
2022-11-26T22:54:16.360Z,1.38
2022-11-26T22:56:42.919Z,1.06
2022-11-26T22:59:12.685Z,1.33
2022-11-26T23:01:39.670Z,0.92
2022-11-26T23:04:09.052Z,1.33
2022-11-26T23:06:36.632Z,1.06
2022-11-26T23:09:06.269Z,0.94
2022-11-26T23:11:37.139Z,0.94
2022-11-26T23:14:04.349Z,0.83
2022-11-26T23:16:30.960Z,0.85
2022-11-26T23:18:57.727Z,0.87
2022-11-26T23:21:27.719Z,0.89
2022-11-26T23:23:55.567Z,0.53
2022-11-26T23:26:27.445Z,0.72
2022-11-26T23:28:56.697Z,0.55
2022-11-26T23:31:26.487Z,1.10
2022-11-26T23:33:53.579Z,0.66
2022-11-26T23:36:21.397Z,0.71
2022-11-26T23:38:48.137Z,0.68
2022-11-26T23:41:15.240Z,0.91
2022-11-26T23:43:42.279Z,0.42
2022-11-26T23:46:27.780Z,0.77
2022-11-26T23:48:55.214Z,0.45
2022-11-26T23:51:24.746Z,0.34
2022-11-26T23:53:52.817Z,0.16
2022-11-26T23:56:25.667Z,0.46
2022-11-26T23:58:57.388Z,0.89
